Mackinaw River (Illinois), Congerville (05567500)

StateIllinoisCurrentPotential (152 cfs)
RiverMackinaw RiverFlood - The river is flooding. Obstacles can be treacherous or deadly. The river should be avoided at this stage for casual trips and definitely for the inexperienced. Trips should be attempted only with protective gear and equipment.Flood(none)
Updated2019-10-14 2:45 (1 hour ago)High - The river is high and potentially dangerous, especially for the young and / or inexperienced. Normal stream obstacles are sometimes difficult to navigate. Extended distances can be attempted, but canoe travel may not be advisable.High3000
Discharge152 cfs (median: 22 cfs)Good - Conditions are ideal for a canoe or kayak. Boats typically will drag on fewer than one-quarter of riffles, if at all, and portages are unnecessary or rare. Normal float lengths can be attempted without a problem.Good(none)
Height1.56 feetLow - River is low but can still be floated. Some riffles are okay but most come with significant dragging and might need a portage. Float lengths should be reduced to accommodate low flow, dragging, and portages.Low(none)
TrendFalling (falling over 24 hours)Poor - River is too low to float comfortably. Most or all riffles will drag or must be portaged and some obstacles (such as slick shelf rock) cause undue problems. Avoid the river at this stage for casual paddling trips.Poor(none)
USGSExternal icon USGS Site for Congerville (05567500)LocationExternal icon Google Maps

Trending Data

Plot Image
ObservationHeightDischargeMaximum
Discharge
Minimum
Discharge
Mean
Discharge
P05P10P20P25P50
(Median)
P75P80P90P95
2019-10-14 02:45 1.56 152 1210 (1971) 0 (1964) 149 2 5 9 9 22 110 217 480 1080
2019-10-14 01:45 1.57 154 1210 (1971) 0 (1964) 149 2 5 9 9 22 110 217 480 1080
2019-10-14 00:45 1.57 154 1210 (1971) 0 (1964) 149 2 5 9 9 22 110 217 480 1080
2019-10-13 23:45 1.57 154 1310 (1978) 0 (1964) 140 2 4 9 10 18 105 230 503 702
2019-10-13 22:45 1.57 154 1310 (1978) 0 (1964) 140 2 4 9 10 18 105 230 503 702
2019-10-13 21:45 1.57 154 1310 (1978) 0 (1964) 140 2 4 9 10 18 105 230 503 702
2019-10-13 20:45 1.57 154 1310 (1978) 0 (1964) 140 2 4 9 10 18 105 230 503 702
2019-10-13 19:45 1.57 154 1310 (1978) 0 (1964) 140 2 4 9 10 18 105 230 503 702
2019-10-13 18:45 1.58 156 1310 (1978) 0 (1964) 140 2 4 9 10 18 105 230 503 702
2019-10-13 17:45 1.58 156 1310 (1978) 0 (1964) 140 2 4 9 10 18 105 230 503 702
2019-10-13 16:45 1.54 148 1310 (1978) 0 (1964) 140 2 4 9 10 18 105 230 503 702
2019-10-13 15:45 1.51 141 1310 (1978) 0 (1964) 140 2 4 9 10 18 105 230 503 702
2019-10-13 14:45 1.51 141 1310 (1978) 0 (1964) 140 2 4 9 10 18 105 230 503 702
2019-10-13 13:45 1.53 146 1310 (1978) 0 (1964) 140 2 4 9 10 18 105 230 503 702
2019-10-13 12:45 1.53 146 1310 (1978) 0 (1964) 140 2 4 9 10 18 105 230 503 702
2019-10-13 11:45 1.55 150 1310 (1978) 0 (1964) 140 2 4 9 10 18 105 230 503 702
2019-10-13 10:45 1.57 154 1310 (1978) 0 (1964) 140 2 4 9 10 18 105 230 503 702
2019-10-13 09:45 1.56 152 1310 (1978) 0 (1964) 140 2 4 9 10 18 105 230 503 702
2019-10-13 08:45 1.57 154 1310 (1978) 0 (1964) 140 2 4 9 10 18 105 230 503 702
2019-10-13 07:45 1.58 156 1310 (1978) 0 (1964) 140 2 4 9 10 18 105 230 503 702
2019-10-13 06:45 1.58 156 1310 (1978) 0 (1964) 140 2 4 9 10 18 105 230 503 702
2019-10-13 05:45 1.58 156 1310 (1978) 0 (1964) 140 2 4 9 10 18 105 230 503 702
2019-10-13 04:45 1.56 152 1310 (1978) 0 (1964) 140 2 4 9 10 18 105 230 503 702
2019-10-13 03:45 1.58 156 1310 (1978) 0 (1964) 140 2 4 9 10 18 105 230 503 702
2019-10-13 02:45 1.58 156 1310 (1978) 0 (1964) 140 2 4 9 10 18 105 230 503 702
2019-10-13 01:45 1.58 156 1310 (1978) 0 (1964) 140 2 4 9 10 18 105 230 503 702
2019-10-13 00:45 1.53 146 1310 (1978) 0 (1964) 140 2 4 9 10 18 105 230 503 702
2019-10-12 23:45 1.51 141 1540 (1978) 0 (1964) 142 2 4 9 10 18 93 223 515 712
2019-10-12 22:45 1.53 146 1540 (1978) 0 (1964) 142 2 4 9 10 18 93 223 515 712
2019-10-12 21:45 1.53 146 1540 (1978) 0 (1964) 142 2 4 9 10 18 93 223 515 712
2019-10-12 20:45 1.51 141 1540 (1978) 0 (1964) 142 2 4 9 10 18 93 223 515 712
2019-10-12 19:45 1.54 148 1540 (1978) 0 (1964) 142 2 4 9 10 18 93 223 515 712
2019-10-12 18:45 1.53 146 1540 (1978) 0 (1964) 142 2 4 9 10 18 93 223 515 712
2019-10-12 17:45 1.53 146 1540 (1978) 0 (1964) 142 2 4 9 10 18 93 223 515 712
2019-10-12 16:45 1.53 146 1540 (1978) 0 (1964) 142 2 4 9 10 18 93 223 515 712
2019-10-12 15:45 1.54 148 1540 (1978) 0 (1964) 142 2 4 9 10 18 93 223 515 712
2019-10-12 14:45 1.53 146 1540 (1978) 0 (1964) 142 2 4 9 10 18 93 223 515 712
2019-10-12 13:45 1.55 150 1540 (1978) 0 (1964) 142 2 4 9 10 18 93 223 515 712
2019-10-12 12:45 1.55 150 1540 (1978) 0 (1964) 142 2 4 9 10 18 93 223 515 712
2019-10-12 11:45 1.54 148 1540 (1978) 0 (1964) 142 2 4 9 10 18 93 223 515 712
2019-10-12 10:45 1.56 152 1540 (1978) 0 (1964) 142 2 4 9 10 18 93 223 515 712
2019-10-12 09:45 1.56 152 1540 (1978) 0 (1964) 142 2 4 9 10 18 93 223 515 712
2019-10-12 08:45 1.57 154 1540 (1978) 0 (1964) 142 2 4 9 10 18 93 223 515 712
2019-10-12 07:45 1.59 158 1540 (1978) 0 (1964) 142 2 4 9 10 18 93 223 515 712
2019-10-12 06:45 1.62 165 1540 (1978) 0 (1964) 142 2 4 9 10 18 93 223 515 712
2019-10-12 05:45 1.63 167 1540 (1978) 0 (1964) 142 2 4 9 10 18 93 223 515 712
2019-10-12 04:45 1.64 169 1540 (1978) 0 (1964) 142 2 4 9 10 18 93 223 515 712
2019-10-12 03:45 1.64 169 1540 (1978) 0 (1964) 142 2 4 9 10 18 93 223 515 712
2019-10-12 02:45 1.64 169 1540 (1978) 0 (1964) 142 2 4 9 10 18 93 223 515 712
2019-10-12 01:45 1.64 169 1540 (1978) 0 (1964) 142 2 4 9 10 18 93 223 515 712
2019-10-12 00:45 1.65 172 1540 (1978) 0 (1964) 142 2 4 9 10 18 93 223 515 712
2019-10-11 23:45 1.65 172 1900 (1978) 0 (1964) 153 2 4 10 11 18 103 243 509 812
2019-10-11 22:45 1.65 172 1900 (1978) 0 (1964) 153 2 4 10 11 18 103 243 509 812
2019-10-11 21:45 1.65 172 1900 (1978) 0 (1964) 153 2 4 10 11 18 103 243 509 812
2019-10-11 20:45 1.66 174 1900 (1978) 0 (1964) 153 2 4 10 11 18 103 243 509 812
2019-10-11 19:45 1.66 174 1900 (1978) 0 (1964) 153 2 4 10 11 18 103 243 509 812
2019-10-11 18:45 1.63 167 1900 (1978) 0 (1964) 153 2 4 10 11 18 103 243 509 812
2019-10-11 17:45 1.65 172 1900 (1978) 0 (1964) 153 2 4 10 11 18 103 243 509 812
2019-10-11 16:45 1.62 165 1900 (1978) 0 (1964) 153 2 4 10 11 18 103 243 509 812
2019-10-11 15:45 1.65 172 1900 (1978) 0 (1964) 153 2 4 10 11 18 103 243 509 812
2019-10-11 14:45 1.65 172 1900 (1978) 0 (1964) 153 2 4 10 11 18 103 243 509 812
2019-10-11 13:45 1.65 172 1900 (1978) 0 (1964) 153 2 4 10 11 18 103 243 509 812
2019-10-11 12:45 1.62 165 1900 (1978) 0 (1964) 153 2 4 10 11 18 103 243 509 812
2019-10-11 10:45 1.66 174 1900 (1978) 0 (1964) 153 2 4 10 11 18 103 243 509 812
2019-10-11 09:45 1.66 174 1900 (1978) 0 (1964) 153 2 4 10 11 18 103 243 509 812
2019-10-11 08:45 1.65 172 1900 (1978) 0 (1964) 153 2 4 10 11 18 103 243 509 812
2019-10-11 07:45 1.67 176 1900 (1978) 0 (1964) 153 2 4 10 11 18 103 243 509 812
2019-10-11 06:45 1.67 176 1900 (1978) 0 (1964) 153 2 4 10 11 18 103 243 509 812
2019-10-11 05:45 1.62 165 1900 (1978) 0 (1964) 153 2 4 10 11 18 103 243 509 812
2019-10-11 04:45 1.63 167 1900 (1978) 0 (1964) 153 2 4 10 11 18 103 243 509 812
2019-10-11 03:45 1.64 169 1900 (1978) 0 (1964) 153 2 4 10 11 18 103 243 509 812
2019-10-11 02:45 1.63 167 1900 (1978) 0 (1964) 153 2 4 10 11 18 103 243 509 812
2019-10-11 01:45 1.62 165 1900 (1978) 0 (1964) 153 2 4 10 11 18 103 243 509 812
2019-10-11 00:45 1.64 169 1900 (1978) 0 (1964) 153 2 4 10 11 18 103 243 509 812
2019-10-10 23:45 1.67 176 2690 (1978) 0 (1964) 156 2 4 9 11 19 123 153 435 805
2019-10-10 22:45 1.68 179 2690 (1978) 0 (1964) 156 2 4 9 11 19 123 153 435 805
2019-10-10 21:45 1.69 181 2690 (1978) 0 (1964) 156 2 4 9 11 19 123 153 435 805
2019-10-10 20:45 1.65 172 2690 (1978) 0 (1964) 156 2 4 9 11 19 123 153 435 805
2019-10-10 19:45 1.64 169 2690 (1978) 0 (1964) 156 2 4 9 11 19 123 153 435 805
2019-10-10 18:45 1.70 183 2690 (1978) 0 (1964) 156 2 4 9 11 19 123 153 435 805
2019-10-10 17:45 1.70 183 2690 (1978) 0 (1964) 156 2 4 9 11 19 123 153 435 805
2019-10-10 16:45 1.70 183 2690 (1978) 0 (1964) 156 2 4 9 11 19 123 153 435 805
2019-10-10 15:45 1.70 183 2690 (1978) 0 (1964) 156 2 4 9 11 19 123 153 435 805
2019-10-10 14:45 1.70 183 2690 (1978) 0 (1964) 156 2 4 9 11 19 123 153 435 805
2019-10-10 13:45 1.70 183 2690 (1978) 0 (1964) 156 2 4 9 11 19 123 153 435 805
2019-10-10 12:45 1.71 185 2690 (1978) 0 (1964) 156 2 4 9 11 19 123 153 435 805
2019-10-10 11:45 1.71 185 2690 (1978) 0 (1964) 156 2 4 9 11 19 123 153 435 805
2019-10-10 10:45 1.69 181 2690 (1978) 0 (1964) 156 2 4 9 11 19 123 153 435 805
2019-10-10 09:45 1.73 190 2690 (1978) 0 (1964) 156 2 4 9 11 19 123 153 435 805
2019-10-10 08:45 1.68 179 2690 (1978) 0 (1964) 156 2 4 9 11 19 123 153 435 805
2019-10-10 07:45 1.72 188 2690 (1978) 0 (1964) 156 2 4 9 11 19 123 153 435 805
2019-10-10 06:45 1.69 181 2690 (1978) 0 (1964) 156 2 4 9 11 19 123 153 435 805
2019-10-10 05:45 1.74 193 2690 (1978) 0 (1964) 156 2 4 9 11 19 123 153 435 805
2019-10-10 04:45 1.72 188 2690 (1978) 0 (1964) 156 2 4 9 11 19 123 153 435 805
2019-10-10 03:45 1.71 185 2690 (1978) 0 (1964) 156 2 4 9 11 19 123 153 435 805
2019-10-10 01:45 1.69 181 2690 (1978) 0 (1964) 156 2 4 9 11 19 123 153 435 805
2019-10-10 00:45 1.75 195 2690 (1978) 0 (1964) 156 2 4 9 11 19 123 153 435 805
2019-10-09 23:45 1.76 197 3370 (1978) 0 (1964) 173 2 4 10 12 20 63 158 417 930
2019-10-09 22:45 1.76 197 3370 (1978) 0 (1964) 173 2 4 10 12 20 63 158 417 930
2019-10-09 21:45 1.76 197 3370 (1978) 0 (1964) 173 2 4 10 12 20 63 158 417 930
2019-10-09 20:45 1.77 200 3370 (1978) 0 (1964) 173 2 4 10 12 20 63 158 417 930
2019-10-09 19:45 1.77 200 3370 (1978) 0 (1964) 173 2 4 10 12 20 63 158 417 930
2019-10-09 18:45 1.78 202 3370 (1978) 0 (1964) 173 2 4 10 12 20 63 158 417 930
2019-10-09 17:45 1.78 202 3370 (1978) 0 (1964) 173 2 4 10 12 20 63 158 417 930
2019-10-09 16:45 1.79 205 3370 (1978) 0 (1964) 173 2 4 10 12 20 63 158 417 930
2019-10-09 15:45 1.79 205 3370 (1978) 0 (1964) 173 2 4 10 12 20 63 158 417 930
2019-10-09 14:45 1.76 197 3370 (1978) 0 (1964) 173 2 4 10 12 20 63 158 417 930
2019-10-09 13:45 1.79 218 3370 (1978) 0 (1964) 173 2 4 10 12 20 63 158 417 930
2019-10-09 12:45 1.75 208 3370 (1978) 0 (1964) 173 2 4 10 12 20 63 158 417 930
2019-10-09 11:45 1.78 216 3370 (1978) 0 (1964) 173 2 4 10 12 20 63 158 417 930
2019-10-09 10:45 1.78 216 3370 (1978) 0 (1964) 173 2 4 10 12 20 63 158 417 930
2019-10-09 09:45 1.81 224 3370 (1978) 0 (1964) 173 2 4 10 12 20 63 158 417 930
2019-10-09 08:45 1.80 221 3370 (1978) 0 (1964) 173 2 4 10 12 20 63 158 417 930
2019-10-09 07:45 1.80 221 3370 (1978) 0 (1964) 173 2 4 10 12 20 63 158 417 930
2019-10-09 06:45 1.81 224 3370 (1978) 0 (1964) 173 2 4 10 12 20 63 158 417 930
2019-10-09 05:45 1.82 226 3370 (1978) 0 (1964) 173 2 4 10 12 20 63 158 417 930
2019-10-09 04:45 1.82 226 3370 (1978) 0 (1964) 173 2 4 10 12 20 63 158 417 930
2019-10-09 03:45 1.82 226 3370 (1978) 0 (1964) 173 2 4 10 12 20 63 158 417 930
2019-10-09 02:45 1.83 229 3370 (1978) 0 (1964) 173 2 4 10 12 20 63 158 417 930
2019-10-09 01:45 1.83 229 3370 (1978) 0 (1964) 173 2 4 10 12 20 63 158 417 930
2019-10-09 00:45 1.84 232 3370 (1978) 0 (1964) 173 2 4 10 12 20 63 158 417 930
2019-10-08 23:45 1.84 232 2960 (2017) 0 (1964) 193 2 4 9 11 20 59 112 530 1270
2019-10-08 22:45 1.84 232 2960 (2017) 0 (1964) 193 2 4 9 11 20 59 112 530 1270
2019-10-08 21:45 1.85 235 2960 (2017) 0 (1964) 193 2 4 9 11 20 59 112 530 1270
2019-10-08 20:45 1.86 237 2960 (2017) 0 (1964) 193 2 4 9 11 20 59 112 530 1270
2019-10-08 19:45 1.86 237 2960 (2017) 0 (1964) 193 2 4 9 11 20 59 112 530 1270
2019-10-08 18:45 1.87 240 2960 (2017) 0 (1964) 193 2 4 9 11 20 59 112 530 1270
2019-10-08 16:45 1.88 243 2960 (2017) 0 (1964) 193 2 4 9 11 20 59 112 530 1270
2019-10-08 15:45 1.87 240 2960 (2017) 0 (1964) 193 2 4 9 11 20 59 112 530 1270
2019-10-08 14:45 1.89 246 2960 (2017) 0 (1964) 193 2 4 9 11 20 59 112 530 1270
2019-10-08 13:45 1.89 246 2960 (2017) 0 (1964) 193 2 4 9 11 20 59 112 530 1270
2019-10-08 12:45 1.85 235 2960 (2017) 0 (1964) 193 2 4 9 11 20 59 112 530 1270
2019-10-08 11:45 1.89 246 2960 (2017) 0 (1964) 193 2 4 9 11 20 59 112 530 1270
2019-10-08 10:45 1.87 240 2960 (2017) 0 (1964) 193 2 4 9 11 20 59 112 530 1270
2019-10-08 09:45 1.90 249 2960 (2017) 0 (1964) 193 2 4 9 11 20 59 112 530 1270
2019-10-08 08:45 1.90 249 2960 (2017) 0 (1964) 193 2 4 9 11 20 59 112 530 1270
2019-10-08 07:45 1.86 237 2960 (2017) 0 (1964) 193 2 4 9 11 20 59 112 530 1270
2019-10-08 06:45 1.87 240 2960 (2017) 0 (1964) 193 2 4 9 11 20 59 112 530 1270
2019-10-08 05:45 1.87 240 2960 (2017) 0 (1964) 193 2 4 9 11 20 59 112 530 1270
2019-10-08 04:45 1.88 243 2960 (2017) 0 (1964) 193 2 4 9 11 20 59 112 530 1270
2019-10-08 03:45 1.89 246 2960 (2017) 0 (1964) 193 2 4 9 11 20 59 112 530 1270
2019-10-08 02:45 1.90 249 2960 (2017) 0 (1964) 193 2 4 9 11 20 59 112 530 1270
2019-10-08 01:45 1.90 249 2960 (2017) 0 (1964) 193 2 4 9 11 20 59 112 530 1270
2019-10-08 00:45 1.91 251 2960 (2017) 0 (1964) 193 2 4 9 11 20 59 112 530 1270
2019-10-07 23:45 1.91 251 4090 (2017) 0 (1964) 203 1 4 9 11 21 75 146 563 1230
2019-10-07 22:45 1.92 254 4090 (2017) 0 (1964) 203 1 4 9 11 21 75 146 563 1230
2019-10-07 21:45 1.93 257 4090 (2017) 0 (1964) 203 1 4 9 11 21 75 146 563 1230
2019-10-07 20:45 1.94 260 4090 (2017) 0 (1964) 203 1 4 9 11 21 75 146 563 1230
2019-10-07 19:45 1.94 260 4090 (2017) 0 (1964) 203 1 4 9 11 21 75 146 563 1230
2019-10-07 18:45 1.95 263 4090 (2017) 0 (1964) 203 1 4 9 11 21 75 146 563 1230
2019-10-07 17:45 1.96 266 4090 (2017) 0 (1964) 203 1 4 9 11 21 75 146 563 1230
2019-10-07 16:45 1.97 269 4090 (2017) 0 (1964) 203 1 4 9 11 21 75 146 563 1230
2019-10-07 15:45 1.96 266 4090 (2017) 0 (1964) 203 1 4 9 11 21 75 146 563 1230
2019-10-07 14:45 1.95 263 4090 (2017) 0 (1964) 203 1 4 9 11 21 75 146 563 1230
2019-10-07 13:45 1.98 272 4090 (2017) 0 (1964) 203 1 4 9 11 21 75 146 563 1230
2019-10-07 12:45 1.99 275 4090 (2017) 0 (1964) 203 1 4 9 11 21 75 146 563 1230
2019-10-07 11:45 1.99 275 4090 (2017) 0 (1964) 203 1 4 9 11 21 75 146 563 1230
2019-10-07 10:45 2.00 278 4090 (2017) 0 (1964) 203 1 4 9 11 21 75 146 563 1230
2019-10-07 09:45 2.00 278 4090 (2017) 0 (1964) 203 1 4 9 11 21 75 146 563 1230
2019-10-07 07:45 2.01 281 4090 (2017) 0 (1964) 203 1 4 9 11 21 75 146 563 1230
2019-10-07 06:45 2.02 284 4090 (2017) 0 (1964) 203 1 4 9 11 21 75 146 563 1230
2019-10-07 05:45 2.03 287 4090 (2017) 0 (1964) 203 1 4 9 11 21 75 146 563 1230
2019-10-07 04:45 2.04 290 4090 (2017) 0 (1964) 203 1 4 9 11 21 75 146 563 1230
2019-10-07 03:45 2.05 293 4090 (2017) 0 (1964) 203 1 4 9 11 21 75 146 563 1230
2019-10-07 02:45 2.06 296 4090 (2017) 0 (1964) 203 1 4 9 11 21 75 146 563 1230
2019-10-07 01:45 2.07 299 4090 (2017) 0 (1964) 203 1 4 9 11 21 75 146 563 1230
2019-10-07 00:45 2.07 299 4090 (2017) 0 (1964) 203 1 4 9 11 21 75 146 563 1230

A total of 167 rows are displayed for years 1945 through 2019.

Trips for Mackinaw River (Illinois), Congerville (05567500)

DateStartEndDistanceConditionDischargeHeightFishingDetails
Click for details2008-06-05 Cemetery (1700N South Road) Dee Mac Road Bridge Total trip distance: 7.0 miles7.0 High 3940 8.95 None NoneNone Fillmore, Brent
Fillmore, Brian
Fillmore, Rebecca
Fillmore, Tina
Fillmore, Brent; Fillmore, Brian; Fillmore, Rebecca; Fillmore, Tina
No notes for this trip<i>No notes for this trip</i> USGS Gauge Data:
Congerville (05567500)
Discharge: 3940
Height: 8.95
<b>USGS Gauge Data:</b></br />Congerville (05567500)<br />Discharge: 3940<br />Height: 8.95
Source: FillmoreSource: Fillmore

A total of 1 rows are displayed.

Trip Summary for Mackinaw River (Illinois), Congerville (05567500)

Miles7
Trips1
People4
Dates1
Years1
Months1
Rows1
Sources1

Condition Descriptions

Fishing Conditions

Fish Species

Notes

Classic Trip List

The classic River Trips application is still available for use. It is updated with the new system using a data retrofit. It is no longer maintained. The original River Trips application is no longer updated (as of 1 Dec 2016) but can be checked for errors or for the condition of the data before it was converted to the new system.